Time;durP1;ratioP1;P1;durP2;ratioP2;P2;SDS_P1;SDS_P2;PMS_P1;PMS_P2;Temp;Humidity;BMP_temperature;BMP_pressure;BME280_temperature;BME280_humidity;BME280_pressure;Samples;Min_cycle;Max_cycle;Signal;HPM_P1;HPM_P2
2022/03/31 00:00:57;;;;;;;;;24.67;23.67;;;;;13.60;48.73;99679.47;4976696;28;45593;-90
2022/03/31 00:03:23;;;;;;;;;26.33;23.67;;;;;13.83;48.30;99726.00;4994521;28;46919;-89
2022/03/31 00:05:49;;;;;;;;;29.00;24.67;;;;;14.04;48.40;99751.19;5059842;28;46002;-89
2022/03/31 00:08:18;;;;;;;;;31.00;28.00;;;;;14.05;48.15;99765.47;4975860;28;45413;-89
2022/03/31 00:10:45;;;;;;;;;29.33;24.67;;;;;14.00;48.55;99755.09;4976704;28;45473;-89
2022/03/31 00:13:14;;;;;;;;;24.33;22.33;;;;;14.02;48.40;99753.13;4975882;28;46213;-89
2022/03/31 00:15:40;;;;;;;;;27.67;21.00;;;;;13.90;48.32;99743.31;4974960;28;45810;-89
2022/03/31 00:18:07;;;;;;;;;32.00;28.33;;;;;13.98;48.30;99745.44;4974520;28;45443;-90
2022/03/31 00:20:32;;;;;;;;;34.00;29.33;;;;;13.61;48.59;99689.25;4966756;28;45569;-89
2022/03/31 00:22:58;;;;;;;;;31.67;24.67;;;;;13.91;48.65;99756.63;4976180;28;46201;-89
2022/03/31 00:25:24;;;;;;;;;26.33;25.33;;;;;14.04;48.38;99753.88;4975594;28;45266;-89
2022/03/31 00:27:50;;;;;;;;;35.67;28.67;;;;;13.69;48.61;99701.06;4958703;28;45387;-90
2022/03/31 00:30:15;;;;;;;;;31.33;27.00;;;;;13.50;48.33;99663.25;4974804;28;45547;-89
2022/03/31 00:32:41;;;;;;;;;28.33;26.67;;;;;14.04;48.17;99745.84;4990720;28;47046;-89
2022/03/31 00:35:10;;;;;;;;;25.67;24.33;;;;;13.42;48.59;99655.78;4958216;28;45233;-89
2022/03/31 00:37:36;;;;;;;;;25.00;22.00;;;;;13.38;48.46;99637.38;4974814;28;45402;-90
2022/03/31 00:40:03;;;;;;;;;28.00;24.00;;;;;13.61;48.63;99671.34;4958806;28;45438;-89
2022/03/31 00:42:28;;;;;;;;;29.67;26.33;;;;;13.13;49.13;99598.13;4974324;28;47492;-89
2022/03/31 00:44:54;;;;;;;;;39.67;33.33;;;;;13.54;48.43;99666.56;4976031;28;45246;-90
2022/03/31 00:47:19;;;;;;;;;34.67;32.00;;;;;13.36;48.86;99645.50;4974618;28;45330;-89
2022/03/31 00:49:45;;;;;;;;;31.67;28.00;;;;;12.97;48.90;99568.97;4958387;28;45270;-90
2022/03/31 00:52:11;;;;;;;;;31.33;29.67;;;;;13.36;48.73;99637.47;4954562;28;48473;-89
2022/03/31 00:54:38;;;;;;;;;31.67;27.67;;;;;13.92;48.74;99733.34;4955554;28;45443;-89
2022/03/31 00:57:06;;;;;;;;;30.67;25.33;;;;;13.90;48.99;99736.13;4939238;28;45469;-89
2022/03/31 00:59:32;;;;;;;;;38.67;31.33;;;;;13.87;48.50;99735.53;4956279;28;45435;-89
2022/03/31 01:01:58;;;;;;;;;32.00;30.00;;;;;13.84;48.80;99725.03;4971224;28;47385;-89
2022/03/31 01:04:24;;;;;;;;;37.33;31.00;;;;;12.85;48.96;99578.72;5035488;28;45422;-89
2022/03/31 01:06:50;;;;;;;;;37.00;28.00;;;;;13.08;49.03;99611.84;5014082;27;45513;-89
2022/03/31 01:09:16;;;;;;;;;35.67;31.00;;;;;12.77;49.21;99571.25;4977822;28;45626;-89
2022/03/31 01:11:42;;;;;;;;;35.67;32.00;;;;;13.66;49.09;99712.03;4993904;28;47302;-89
2022/03/31 01:14:08;;;;;;;;;32.33;28.33;;;;;13.72;49.61;99724.13;4994345;28;46021;-88
2022/03/31 01:16:35;;;;;;;;;33.00;30.00;;;;;12.67;49.59;99554.19;4996819;27;45406;-89
2022/03/31 01:19:10;;;;;;;;;42.33;34.67;;;;;13.09;49.90;99626.94;4963317;28;45623;-89
2022/03/31 01:21:38;;;;;;;;;36.33;33.33;;;;;13.54;49.88;99714.75;4976394;28;47368;-88
2022/03/31 01:24:06;;;;;;;;;32.00;28.00;;;;;12.40;49.98;99520.44;4976846;28;45648;-88
2022/03/31 01:26:32;;;;;;;;;37.00;30.33;;;;;13.05;50.04;99631.66;4960810;28;45217;-88
2022/03/31 01:28:57;;;;;;;;;35.33;30.67;;;;;13.06;50.20;99641.41;4941516;28;45495;-88
2022/03/31 01:31:23;;;;;;;;;35.67;31.67;;;;;12.72;50.43;99588.63;4958487;28;46344;-88
2022/03/31 01:33:49;;;;;;;;;33.33;28.00;;;;;12.65;50.53;99583.69;4941105;28;45807;-88
2022/03/31 01:36:15;;;;;;;;;36.67;32.33;;;;;12.79;50.54;99605.94;4941440;28;45315;-88
2022/03/31 01:38:40;;;;;;;;;37.33;33.33;;;;;12.82;50.69;99617.25;4941415;28;45378;-89
2022/03/31 01:41:07;;;;;;;;;44.00;35.75;;;;;12.72;50.85;99610.00;4958649;28;46487;-88
2022/03/31 01:43:32;;;;;;;;;33.67;27.67;;;;;12.84;50.17;99619.81;4958219;28;45565;-88
2022/03/31 01:45:58;;;;;;;;;35.00;31.00;;;;;12.78;50.77;99604.19;4957199;28;45421;-88
2022/03/31 01:48:23;;;;;;;;;40.25;33.50;;;;;13.18;50.74;99665.53;4993240;27;45408;-89
2022/03/31 01:50:50;;;;;;;;;39.25;35.00;;;;;12.82;50.39;99617.25;4990871;28;45350;-89
2022/03/31 01:53:15;;;;;;;;;38.50;34.00;;;;;12.65;50.95;99591.72;4976613;28;45866;-88
2022/03/31 01:55:41;;;;;;;;;40.00;36.25;;;;;12.64;50.83;99582.00;4960164;28;45320;-89
2022/03/31 01:58:07;;;;;;;;;39.25;34.75;;;;;12.97;50.86;99636.72;4977112;28;45570;-88
2022/03/31 02:00:33;;;;;;;;;40.75;36.25;;;;;13.21;50.85;99679.56;4959985;28;47194;-89
2022/03/31 02:02:59;;;;;;;;;51.00;40.00;;;;;12.00;50.77;99495.66;4977557;28;45421;-89
2022/03/31 02:05:25;;;;;;;;;43.50;35.00;;;;;12.64;51.22;99603.38;4977843;28;45479;-88
2022/03/31 02:07:57;;;;;;;;;30.00;29.25;;;;;12.44;51.25;99582.53;5062409;28;45348;-89
2022/03/31 02:10:26;;;;;;;;;44.25;36.25;;;;;12.43;51.27;99579.03;5061785;28;47957;-88
2022/03/31 02:12:53;;;;;;;;;37.25;34.75;;;;;12.22;51.05;99541.31;5057394;28;46179;-89
2022/03/31 02:15:21;;;;;;;;;47.75;38.75;;;;;12.97;51.35;99667.94;4977970;28;45474;-88
2022/03/31 02:17:48;;;;;;;;;47.75;36.25;;;;;13.02;51.38;99684.53;4993842;27;45379;-88
2022/03/31 02:20:13;;;;;;;;;39.50;35.00;;;;;12.54;51.11;99612.16;4995712;27;47567;-88
2022/03/31 02:22:39;;;;;;;;;47.25;37.50;;;;;12.25;51.34;99570.47;4990319;27;45468;-88
2022/03/31 02:25:08;;;;;;;;;42.25;34.50;;;;;12.25;51.05;99578.47;4940516;28;45397;-88
2022/03/31 02:27:38;;;;;;;;;43.00;35.25;;;;;12.73;51.39;99657.16;4940518;28;45505;-88
2022/03/31 02:30:05;;;;;;;;;42.75;36.75;;;;;12.52;51.59;99628.28;4956682;28;47192;-88
2022/03/31 02:32:30;;;;;;;;;36.75;34.25;;;;;12.48;51.67;99626.81;4940172;28;45745;-88
2022/03/31 02:34:57;;;;;;;;;41.25;35.75;;;;;11.83;51.79;99518.19;4958336;28;45414;-88
2022/03/31 02:37:22;;;;;;;;;45.75;36.00;;;;;12.21;51.73;99586.81;4976399;28;45412;-88
2022/03/31 02:39:48;;;;;;;;;30.00;29.00;;;;;12.71;51.47;99664.41;4976134;28;47995;-88
2022/03/31 02:42:14;;;;;;;;;43.25;34.75;;;;;12.21;51.73;99592.16;4976360;28;45337;-88
2022/03/31 02:44:40;;;;;;;;;44.00;36.00;;;;;12.24;51.84;99606.16;4977185;28;45316;-88
2022/03/31 02:47:06;;;;;;;;;43.75;34.75;;;;;12.40;51.66;99634.47;4977502;28;45408;-88
2022/03/31 02:49:31;;;;;;;;;48.50;41.00;;;;;11.71;51.96;99530.53;4992454;27;47222;-88
2022/03/31 02:51:58;;;;;;;;;46.00;37.75;;;;;11.62;51.46;99525.84;4977185;28;45181;-88
2022/03/31 02:57:07;;;;;;;;;47.00;38.75;;;;;12.22;51.91;99616.09;4977328;28;45354;-88
2022/03/31 02:59:33;;;;;;;;;47.00;36.25;;;;;12.01;51.92;99594.38;4975511;28;47245;-88
2022/03/31 03:01:58;;;;;;;;;42.25;36.25;;;;;12.40;52.11;99658.53;4975592;28;45332;-89
2022/03/31 03:04:24;;;;;;;;;40.75;35.50;;;;;11.89;51.93;99578.31;4976066;28;45383;-89
2022/03/31 03:06:50;;;;;;;;;41.50;34.75;;;;;12.52;52.26;99668.38;4959880;28;45502;-89
2022/03/31 03:09:15;;;;;;;;;44.25;35.25;;;;;11.80;52.22;99566.44;4975728;28;47767;-89
2022/03/31 03:11:41;;;;;;;;;40.00;34.75;;;;;11.88;51.74;99563.28;4975543;28;45379;-88
2022/03/31 03:14:06;;;;;;;;;41.50;35.00;;;;;11.75;51.94;99555.19;4975786;28;45806;-89
2022/03/31 03:16:32;;;;;;;;;39.50;32.75;;;;;12.20;52.04;99615.34;4959891;28;45509;-89
2022/03/31 03:18:57;;;;;;;;;45.25;35.25;;;;;11.65;52.00;99519.44;4977935;28;48383;-89
2022/03/31 03:21:23;;;;;;;;;45.00;35.25;;;;;11.94;52.04;99571.72;4978741;28;45330;-89
2022/03/31 03:23:48;;;;;;;;;40.75;32.00;;;;;11.81;51.92;99550.31;4965253;27;45549;-89
2022/03/31 03:26:14;;;;;;;;;44.00;32.00;;;;;12.45;51.81;99645.69;4972725;28;45483;-89
2022/03/31 03:28:39;;;;;;;;;45.25;36.50;;;;;11.69;51.87;99531.63;4957167;28;45283;-89
2022/03/31 03:31:06;;;;;;;;;43.75;34.75;;;;;12.43;51.98;99642.28;4956079;28;45265;-88
2022/03/31 03:33:32;;;;;;;;;45.50;37.50;;;;;11.74;51.92;99542.81;4957418;28;45294;-89
2022/03/31 03:35:58;;;;;;;;;46.00;36.50;;;;;12.40;51.82;99647.84;4940115;28;45544;-89
2022/03/31 03:38:24;;;;;;;;;45.75;35.00;;;;;11.23;52.07;99458.19;4956638;28;45355;-88
2022/03/31 03:40:49;;;;;;;;;37.25;31.00;;;;;11.38;52.05;99488.31;4957866;28;45378;-89
2022/03/31 03:43:14;;;;;;;;;45.25;36.25;;;;;11.64;52.12;99528.41;4976186;28;45401;-89
2022/03/31 03:45:40;;;;;;;;;47.25;37.50;;;;;12.04;51.79;99598.66;4975588;28;45619;-89
2022/03/31 03:48:07;;;;;;;;;46.75;37.75;;;;;12.03;51.66;99591.59;4975175;28;47215;-90
2022/03/31 03:50:36;;;;;;;;;45.50;37.00;;;;;11.93;52.07;99593.19;4959268;28;45681;-89
2022/03/31 03:53:03;;;;;;;;;46.75;36.00;;;;;12.09;51.98;99609.03;4959159;28;45297;-90
2022/03/31 03:55:30;;;;;;;;;43.25;35.00;;;;;11.73;51.67;99560.66;4995175;27;45653;-89
2022/03/31 03:57:55;;;;;;;;;49.25;38.25;;;;;12.21;51.67;99638.41;4994109;27;48074;-89
2022/03/31 04:00:21;;;;;;;;;41.75;34.00;;;;;11.50;51.88;99548.84;4994431;27;46432;-89
2022/03/31 04:02:46;;;;;;;;;47.25;36.50;;;;;11.49;51.58;99536.47;4995212;27;45376;-89
2022/03/31 04:05:11;;;;;;;;;39.25;32.50;;;;;11.11;51.74;99497.19;4992916;27;45433;-89
2022/03/31 04:07:37;;;;;;;;;46.00;36.25;;;;;11.97;51.96;99616.06;4955892;28;47457;-89
2022/03/31 04:10:03;;;;;;;;;47.00;36.25;;;;;11.97;51.50;99627.59;4939593;28;45276;-88
2022/03/31 04:12:28;;;;;;;;;48.50;39.00;;;;;11.80;51.63;99601.16;4956855;28;45410;-88
2022/03/31 04:14:53;;;;;;;;;44.50;36.50;;;;;11.10;51.53;99497.31;4956653;28;45588;-88
2022/03/31 04:17:19;;;;;;;;;50.25;39.00;;;;;11.68;51.61;99591.28;4974964;28;47881;-88
2022/03/31 04:19:44;;;;;;;;;47.25;35.75;;;;;11.89;51.20;99631.72;4975880;28;45315;-88
2022/03/31 04:22:10;;;;;;;;;49.50;39.25;;;;;12.04;51.35;99655.59;4974935;28;45508;-89
2022/03/31 04:24:35;;;;;;;;;48.50;40.50;;;;;11.85;51.26;99636.41;4975239;28;45547;-88
2022/03/31 04:27:01;;;;;;;;;46.75;38.75;;;;;12.02;51.25;99648.66;4974677;28;47018;-88
2022/03/31 04:29:27;;;;;;;;;46.75;37.50;;;;;10.80;51.33;99455.69;4974921;28;46225;-89
2022/03/31 04:31:53;;;;;;;;;50.25;40.25;;;;;11.68;51.28;99593.94;4974922;28;45449;-88
2022/03/31 04:34:24;;;;;;;;;53.25;41.50;;;;;11.20;51.12;99539.25;4947137;28;45383;-89
2022/03/31 04:36:49;;;;;;;;;47.75;37.25;;;;;11.08;51.81;99512.56;4939200;28;47026;-89
2022/03/31 04:39:15;;;;;;;;;44.25;38.00;;;;;11.81;51.26;99633.06;4938879;28;45325;-90
2022/03/31 04:41:42;;;;;;;;;47.50;38.25;;;;;11.02;51.37;99512.94;4990490;27;45389;-89
2022/03/31 04:44:08;;;;;;;;;46.25;37.75;;;;;11.88;51.17;99648.72;4975791;28;45349;-90
2022/03/31 04:46:35;;;;;;;;;50.25;41.00;;;;;11.84;51.58;99646.19;4975525;28;45389;-89
2022/03/31 04:49:00;;;;;;;;;52.00;39.00;;;;;11.19;51.39;99555.34;4956833;28;45508;-89
2022/03/31 04:51:26;;;;;;;;;50.25;39.00;;;;;11.78;51.38;99651.13;4975741;28;45511;-89
2022/03/31 04:53:52;;;;;;;;;49.50;39.25;;;;;10.96;51.44;99536.38;4963158;28;45531;-89
2022/03/31 04:56:17;;;;;;;;;51.50;40.00;;;;;11.39;51.75;99592.25;4958078;28;47909;-89
2022/03/31 04:58:44;;;;;;;;;52.75;42.25;;;;;11.71;51.81;99637.31;4957789;28;45515;-89
2022/03/31 05:01:10;;;;;;;;;55.00;41.25;;;;;11.20;51.76;99562.41;4975384;28;45442;-88
2022/03/31 05:03:36;;;;;;;;;49.50;40.50;;;;;10.96;51.78;99520.38;4974777;28;45449;-89
2022/03/31 05:06:02;;;;;;;;;52.00;41.00;;;;;10.23;51.64;99406.06;4958309;28;47157;-85
2022/03/31 05:08:27;;;;;;;;;50.00;39.50;;;;;10.72;51.76;99489.97;4975381;28;45192;-87
2022/03/31 05:10:52;;;;;;;;;53.50;43.00;;;;;11.62;51.84;99644.09;4958030;28;45269;-88
2022/03/31 05:13:18;;;;;;;;;49.00;39.50;;;;;11.46;51.82;99618.53;4975668;28;45256;-92
2022/03/31 05:15:43;;;;;;;;;51.75;39.00;;;;;11.60;51.51;99653.16;4975030;28;47925;-92
2022/03/31 05:18:08;;;;;;;;;48.25;38.50;;;;;10.92;51.78;99540.19;4957639;28;45503;-88
2022/03/31 05:20:34;;;;;;;;;53.25;41.75;;;;;10.83;51.74;99529.28;4964028;28;45291;-84
2022/03/31 05:23:00;;;;;;;;;55.00;41.75;;;;;11.20;51.90;99607.75;4939482;28;45601;-92
2022/03/31 05:25:25;;;;;;;;;51.25;39.50;;;;;10.85;51.92;99559.34;4971719;28;47102;-89
2022/03/31 05:27:51;;;;;;;;;56.75;43.75;;;;;11.52;51.86;99667.03;4940184;28;45401;-92
2022/03/31 05:30:19;;;;;;;;;56.00;44.50;;;;;10.93;51.94;99570.38;4970425;28;45386;-92
2022/03/31 05:32:48;;;;;;;;;55.75;43.75;;;;;11.14;51.71;99606.34;4955278;28;45196;-89
2022/03/31 05:35:14;;;;;;;;;55.50;44.50;;;;;10.61;51.73;99513.81;4971738;28;47141;-87
2022/03/31 05:37:40;;;;;;;;;57.75;45.50;;;;;11.06;51.78;99597.97;4961782;28;45468;-89
2022/03/31 05:40:08;;;;;;;;;51.50;41.50;;;;;11.36;52.20;99655.63;4956629;28;45378;-91
2022/03/31 05:42:34;;;;;;;;;55.50;44.75;;;;;11.51;52.16;99677.78;4957448;28;45310;-92
2022/03/31 05:45:01;;;;;;;;;60.75;46.00;;;;;10.66;51.86;99525.03;4939147;28;47547;-85
2022/03/31 05:47:29;;;;;;;;;56.75;45.00;;;;;10.71;52.12;99538.91;4963032;28;45385;-90
2022/03/31 05:49:54;;;;;;;;;57.25;43.75;;;;;11.56;52.02;99673.84;4979627;28;45311;-83
2022/03/31 05:52:21;;;;;;;;;52.25;41.00;;;;;11.55;52.36;99669.47;4974461;28;45331;-82
2022/03/31 05:54:48;;;;;;;;;76.00;61.75;;;;;11.22;51.99;99616.50;5005444;28;46634;-83
2022/03/31 05:57:13;;;;;;;;;67.25;49.75;;;;;11.44;52.09;99653.31;4993846;28;45534;-83
2022/03/31 05:59:38;;;;;;;;;61.50;47.75;;;;;11.48;52.20;99659.31;5009239;28;45447;-81
2022/03/31 06:02:04;;;;;;;;;54.50;44.50;;;;;11.23;52.16;99614.69;4973155;28;45412;-83
2022/03/31 06:04:29;;;;;;;;;58.00;45.75;;;;;11.43;52.33;99661.44;4947632;28;47576;-83
2022/03/31 06:06:54;;;;;;;;;61.50;45.25;;;;;11.39;52.31;99655.44;4970401;28;49721;-83
2022/03/31 06:09:20;;;;;;;;;58.75;46.25;;;;;11.60;52.21;99691.38;4984172;28;45252;-83
2022/03/31 06:11:45;;;;;;;;;54.75;44.25;;;;;11.05;52.29;99598.06;4996390;28;45416;-83
2022/03/31 06:14:11;;;;;;;;;53.75;44.00;;;;;11.37;52.52;99652.84;4996883;28;45303;-82
2022/03/31 06:16:37;;;;;;;;;60.25;45.50;;;;;11.64;52.65;99694.72;5056542;28;45390;-83
2022/03/31 06:19:04;;;;;;;;;58.50;46.50;;;;;11.19;52.54;99611.34;4979975;28;45395;-83
2022/03/31 06:21:29;;;;;;;;;66.25;50.25;;;;;11.20;52.58;99611.25;4977216;28;45359;-84
2022/03/31 06:23:58;;;;;;;;;62.75;48.25;;;;;11.55;52.63;99656.16;4971939;28;48176;-83
2022/03/31 06:26:23;;;;;;;;;60.75;48.25;;;;;11.57;52.66;99664.06;4982873;27;45654;-83
2022/03/31 06:28:49;;;;;;;;;59.75;46.00;;;;;11.41;52.87;99627.69;4981942;28;45575;-82
2022/03/31 06:31:15;;;;;;;;;59.75;46.50;;;;;11.60;52.63;99655.84;4976674;28;45511;-83
2022/03/31 06:33:40;;;;;;;;;58.50;45.00;;;;;11.57;52.58;99634.69;4973406;28;46671;-83
2022/03/31 06:36:06;;;;;;;;;61.25;45.00;;;;;11.66;52.56;99642.09;4981653;28;45827;-84
2022/03/31 06:38:31;;;;;;;;;53.75;44.75;;;;;11.55;52.22;99618.78;4977131;28;45565;-84
2022/03/31 06:41:14;;;;;;;;;59.50;46.00;;;;;11.63;52.22;99620.94;4976721;28;45293;-84
2022/03/31 06:43:42;;;;;;;;;53.75;43.00;;;;;11.57;52.38;99608.88;4976865;28;45417;-84
2022/03/31 06:46:08;;;;;;;;;57.00;44.00;;;;;12.00;52.02;99686.13;4973178;28;45570;-83
2022/03/31 06:48:36;;;;;;;;;54.00;44.00;;;;;11.64;52.02;99620.00;4975479;28;45497;-87
2022/03/31 06:51:03;;;;;;;;;58.50;44.25;;;;;12.14;52.47;99685.19;4978581;28;45575;-83
2022/03/31 06:53:29;;;;;;;;;62.00;44.25;;;;;12.15;52.37;99683.38;4945538;28;48094;-85
2022/03/31 06:55:54;;;;;;;;;57.25;44.25;;;;;11.92;52.02;99645.75;4956105;28;45925;-85
2022/03/31 06:58:25;;;;;;;;;55.25;42.50;;;;;11.96;52.08;99639.25;4957749;28;45318;-85
2022/03/31 07:00:50;;;;;;;;;58.50;45.25;;;;;11.86;51.84;99624.75;4940177;28;45406;-85
2022/03/31 07:03:16;;;;;;;;;57.25;44.50;;;;;11.69;51.86;99590.34;4974440;28;46137;-86
2022/03/31 07:05:41;;;;;;;;;56.25;44.00;;;;;12.24;51.73;99669.41;4990828;28;45585;-84
2022/03/31 07:08:06;;;;;;;;;52.50;40.50;;;;;11.62;51.84;99566.72;4976926;28;45461;-84
2022/03/31 07:10:33;;;;;;;;;52.50;40.75;;;;;12.46;51.56;99692.88;4964904;28;45564;-85
2022/03/31 07:13:00;;;;;;;;;55.25;41.25;;;;;12.35;51.75;99666.00;4969320;28;46433;-83
2022/03/31 07:15:27;;;;;;;;;56.50;45.25;;;;;12.24;51.30;99648.91;4957975;28;45441;-84
2022/03/31 07:17:54;;;;;;;;;56.00;46.25;;;;;12.46;51.33;99676.81;4939385;28;45387;-84
2022/03/31 07:20:20;;;;;;;;;49.00;42.00;;;;;12.04;51.50;99612.84;4957892;28;45461;-84
2022/03/31 07:22:50;;;;;;;;;53.75;40.25;;;;;12.13;51.31;99619.41;4969510;28;45577;-84
2022/03/31 07:25:16;;;;;;;;;53.50;42.25;;;;;12.64;51.09;99696.06;4972688;28;45462;-84
2022/03/31 07:27:43;;;;;;;;;60.50;48.25;;;;;12.21;51.54;99627.72;4955931;28;45414;-83
2022/03/31 07:30:10;;;;;;;;;59.25;46.50;;;;;12.66;51.27;99695.00;4940556;28;45637;-84
2022/03/31 07:32:53;;;;;;;;;47.50;39.25;;;;;12.28;51.33;99652.22;4967725;28;45396;-90
2022/03/31 07:35:20;;;;;;;;;67.75;53.00;;;;;12.09;52.52;99698.00;4966613;28;45864;-88
2022/03/31 07:37:46;;;;;;;;;61.75;48.00;;;;;11.94;53.69;99715.94;4970754;28;45700;-89
2022/03/31 07:40:12;;;;;;;;;65.50;50.00;;;;;11.52;53.86;99645.69;4971289;28;45600;-88
2022/03/31 07:42:37;;;;;;;;;56.50;44.50;;;;;11.31;54.22;99605.25;4969067;28;45825;-88
2022/03/31 07:45:03;;;;;;;;;60.25;46.75;;;;;11.58;55.40;99628.41;4964962;28;45478;-89
2022/03/31 07:47:29;;;;;;;;;57.25;45.00;;;;;12.12;55.15;99711.16;4964066;28;45344;-89
2022/03/31 07:49:54;;;;;;;;;57.00;42.75;;;;;11.86;56.56;99666.63;4973721;28;45423;-88
2022/03/31 07:52:21;;;;;;;;;54.25;43.50;;;;;12.16;55.61;99711.81;4971408;28;45429;-88
2022/03/31 07:54:47;;;;;;;;;51.50;41.50;;;;;10.89;56.09;99516.41;4964381;28;45588;-91
2022/03/31 07:57:13;;;;;;;;;53.50;41.75;;;;;11.00;56.95;99529.03;4964597;28;45460;-90
2022/03/31 07:59:38;;;;;;;;;59.50;46.00;;;;;12.19;56.49;99741.84;4967278;28;45502;-90
2022/03/31 08:02:04;;;;;;;;;57.00;46.00;;;;;11.54;56.53;99625.09;4964452;28;46340;-91
2022/03/31 08:04:29;;;;;;;;;44.75;35.50;;;;;12.01;56.20;99711.00;4964863;28;46342;-89
2022/03/31 08:06:55;;;;;;;;;28.00;26.67;;;;;11.13;57.14;99566.44;4960916;28;45637;-89
2022/03/31 08:09:21;;;;;;;;;20.00;18.67;;;;;11.57;56.76;99643.56;4964766;28;45350;-89
2022/03/31 08:11:49;;;;;;;;;12.67;12.67;;;;;11.88;55.56;99734.16;4948715;28;47117;-88
2022/03/31 08:14:16;;;;;;;;;14.33;14.33;;;;;11.52;56.01;99692.84;4971038;28;45538;-89
2022/03/31 08:16:49;;;;;;;;;13.67;13.67;;;;;11.38;56.29;99689.25;4950455;28;45500;-88
2022/03/31 08:19:16;;;;;;;;;15.00;14.00;;;;;11.74;55.99;99761.72;4965390;28;45532;-89
2022/03/31 08:21:43;;;;;;;;;12.00;12.00;;;;;11.54;54.89;99741.63;4964081;28;46058;-89
2022/03/31 08:24:13;;;;;;;;;13.00;11.00;;;;;10.51;55.41;99596.09;4965886;28;45235;-89
2022/03/31 08:26:40;;;;;;;;;10.67;10.00;;;;;11.42;55.16;99767.28;4960010;28;45583;-88
2022/03/31 08:29:07;;;;;;;;;9.67;8.33;;;;;10.51;55.16;99633.41;4971620;28;45622;-88
2022/03/31 08:31:34;;;;;;;;;9.00;7.00;;;;;10.63;54.17;99677.97;4945633;28;48150;-87
2022/03/31 08:34:00;;;;;;;;;7.67;7.67;;;;;10.44;54.28;99680.91;4964661;28;46187;-89
2022/03/31 08:36:25;;;;;;;;;5.00;5.00;;;;;10.02;53.89;99618.56;4962384;28;45385;-88
2022/03/31 08:38:50;;;;;;;;;9.00;9.00;;;;;10.76;54.05;99742.88;4970399;28;45561;-89
2022/03/31 08:41:18;;;;;;;;;9.00;7.00;;;;;10.42;53.46;99717.41;4946577;28;47273;-85
2022/03/31 08:43:43;;;;;;;;;33.50;28.50;;;;;9.90;54.05;99728.41;4966602;28;45717;-90
2022/03/31 08:46:10;;;;;;;;;9.67;9.00;;;;;10.48;55.29;99828.06;4963356;28;45346;-85
2022/03/31 08:48:37;;;;;;;;;5.67;5.67;;;;;10.59;54.92;99833.63;4970097;28;45288;-85
2022/03/31 08:51:04;;;;;;;;;6.00;6.00;;;;;10.43;54.93;99783.06;4947643;28;48354;-85
2022/03/31 08:53:30;;;;;;;;;8.00;6.67;;;;;10.76;55.18;99843.31;4965026;28;45753;-86
2022/03/31 08:55:55;;;;;;;;;6.33;6.00;;;;;9.82;55.01;99701.38;4982388;28;45699;-85
2022/03/31 08:58:20;;;;;;;;;7.00;7.00;;;;;10.61;55.31;99829.09;4949086;28;45774;-85
2022/03/31 09:00:46;;;;;;;;;6.00;4.33;;;;;9.97;55.08;99723.59;4969343;28;46184;-85
2022/03/31 09:03:11;;;;;;;;;8.67;8.67;;;;;10.00;55.45;99737.59;4960412;28;45477;-87
2022/03/31 09:05:42;;;;;;;;;5.67;5.67;;;;;10.15;55.24;99773.97;4966174;28;45517;-85
2022/03/31 09:08:12;;;;;;;;;6.00;6.00;;;;;10.01;54.33;99762.41;4962350;28;45308;-85
2022/03/31 09:10:44;;;;;;;;;9.00;5.33;;;;;10.39;56.06;99833.94;4946629;28;47503;-84
2022/03/31 09:13:38;;;;;;;;;5.33;5.00;;;;;10.52;55.29;99880.25;4966175;28;45480;-84
2022/03/31 09:16:06;;;;;;;;;4.00;4.00;;;;;10.51;55.74;99894.50;4939597;28;45512;-84
2022/03/31 09:18:33;;;;;;;;;5.00;5.00;;;;;10.20;56.01;99842.94;4947067;28;45513;-84
2022/03/31 09:21:01;;;;;;;;;5.00;5.00;;;;;10.33;55.33;99883.94;4967763;28;45428;-85
2022/03/31 09:23:32;;;;;;;;;5.00;5.00;;;;;9.78;54.58;99801.81;4981944;28;46167;-85
2022/03/31 09:26:07;;;;;;;;;5.00;5.00;;;;;10.03;54.83;99843.03;4958254;28;45505;-85
2022/03/31 09:28:34;;;;;;;;;4.00;4.00;;;;;9.81;55.38;99825.59;4967540;28;45323;-85
2022/03/31 09:30:59;;;;;;;;;5.00;4.67;;;;;10.29;56.09;99917.03;4946830;28;47558;-84
2022/03/31 09:33:34;;;;;;;;;4.00;4.00;;;;;9.81;55.32;99833.59;4967906;28;45693;-85
2022/03/31 09:36:11;;;;;;;;;4.00;4.00;;;;;9.93;55.28;99872.84;4966342;28;45437;-86
2022/03/31 09:38:37;;;;;;;;;5.33;4.33;;;;;9.67;55.93;99842.34;4947263;28;45386;-86
2022/03/31 09:41:19;;;;;;;;;4.33;3.67;;;;;9.79;55.74;99855.91;4976368;27;48327;-84
2022/03/31 09:43:46;;;;;;;;;6.00;6.00;;;;;10.24;55.84;99928.84;4962433;28;45520;-86
2022/03/31 09:46:35;;;;;;;;;8.00;4.00;;;;;10.24;56.18;99932.38;4967873;28;45274;-86
2022/03/31 09:49:13;;;;;;;;;6.00;6.00;;;;;10.23;55.36;99932.44;4963428;28;45543;-85
2022/03/31 09:51:39;;;;;;;;;5.33;5.33;;;;;9.82;54.96;99875.22;4986404;28;48121;-84
2022/03/31 09:54:04;;;;;;;;;5.67;5.67;;;;;10.21;55.46;99939.66;4952945;28;46028;-82
2022/03/31 09:56:38;;;;;;;;;4.33;4.33;;;;;9.55;55.80;99835.00;4958684;28;45488;-89
2022/03/31 09:59:04;;;;;;;;;4.33;3.67;;;;;10.20;55.39;99925.50;4969580;28;45525;-88
2022/03/31 10:01:31;;;;;;;;;6.00;4.67;;;;;10.19;55.34;99934.44;4971304;28;47147;-85
2022/03/31 10:04:00;;;;;;;;;10.67;10.67;;;;;9.22;55.32;99766.72;4972776;28;45236;-92
2022/03/31 10:06:25;;;;;;;;;4.33;4.33;;;;;9.71;56.04;99862.47;4988163;27;45627;-89
2022/03/31 10:08:52;;;;;;;;;6.00;4.67;;;;;10.31;55.48;99947.09;4969244;28;45426;-91
2022/03/31 10:11:19;;;;;;;;;7.00;6.00;;;;;10.02;55.48;99883.91;4969873;28;48269;-91
2022/03/31 10:14:22;;;;;;;;;4.00;4.00;;;;;10.38;55.85;99933.44;4968114;28;45516;-87
2022/03/31 10:16:56;;;;;;;;;5.33;4.00;;;;;9.54;55.21;99790.72;4963887;28;45600;-88
2022/03/31 10:19:46;;;;;;;;;4.67;4.67;;;;;9.57;55.07;99797.69;4980501;28;45453;-90
2022/03/31 10:25:07;;;;;;;;;4.00;4.00;;;;;10.49;54.79;99931.91;4991577;28;45481;-84
2022/03/31 10:27:35;;;;;;;;;5.00;4.00;;;;;10.26;54.75;99884.34;4971013;28;45484;-84
2022/03/31 10:30:12;;;;;;;;;5.00;5.00;;;;;10.03;55.47;99840.38;4969103;28;45501;-88
2022/03/31 10:33:09;;;;;;;;;8.33;5.67;;;;;10.66;54.62;99930.94;4966976;28;45425;-88
2022/03/31 10:35:41;;;;;;;;;6.33;5.00;;;;;10.51;55.24;99889.16;4951260;28;46038;-85
2022/03/31 10:38:12;;;;;;;;;4.33;4.33;;;;;10.82;55.48;99920.25;4961878;28;45471;-87
2022/03/31 10:40:40;;;;;;;;;4.33;3.00;;;;;10.89;54.68;99926.94;4958841;28;45409;-87
2022/03/31 10:43:06;;;;;;;;;4.67;3.67;;;;;10.34;54.61;99842.19;4967653;28;46555;-87
2022/03/31 10:45:42;;;;;;;;;2.33;2.33;;;;;10.94;54.37;99926.69;4965525;28;45770;-87
2022/03/31 10:48:19;;;;;;;;;2.00;2.00;;;;;10.80;54.09;99905.31;4942961;28;45468;-89
2022/03/31 10:50:47;;;;;;;;;2.00;2.00;;;;;10.42;53.77;99831.97;4969234;28;45393;-87
2022/03/31 10:53:12;;;;;;;;;2.00;2.00;;;;;10.15;54.06;99787.28;4959500;28;47104;-87
2022/03/31 10:55:47;;;;;;;;;4.00;2.00;;;;;11.05;53.44;99934.03;4964490;28;45751;-87
2022/03/31 10:58:21;;;;;;;;;2.33;1.33;;;;;10.99;53.34;99922.78;4968445;28;45743;-88
2022/03/31 11:00:49;;;;;;;;;1.33;1.33;;;;;10.87;53.25;99885.34;4960652;28;45584;-87
2022/03/31 11:03:18;;;;;;;;;2.00;2.00;;;;;10.51;52.65;99814.56;4979825;28;45427;-87
2022/03/31 11:05:43;;;;;;;;;3.00;3.00;;;;;10.53;53.10;99824.19;4967967;28;45409;-88
2022/03/31 11:08:09;;;;;;;;;4.00;4.00;;;;;10.41;51.45;99794.75;4960400;28;45670;-88
2022/03/31 11:11:00;;;;;;;;;3.00;3.00;;;;;11.26;52.38;99922.13;4960632;28;45537;-88
2022/03/31 11:13:34;;;;;;;;;4.67;4.67;;;;;10.70;52.79;99820.56;4963375;28;46533;-93
2022/03/31 11:16:01;;;;;;;;;4.67;4.67;;;;;10.74;52.01;99815.88;4959668;28;45644;-91
2022/03/31 11:18:27;;;;;;;;;3.00;3.00;;;;;11.39;50.90;99916.88;4960119;28;45569;-92
2022/03/31 11:21:01;;;;;;;;;5.00;4.67;;;;;11.06;51.91;99853.09;4963673;28;45453;-88
2022/03/31 11:23:28;;;;;;;;;5.00;5.00;;;;;11.44;50.58;99914.78;4957791;28;47959;-87
2022/03/31 11:25:53;;;;;;;;;5.00;3.00;;;;;10.75;50.42;99797.16;4973099;28;45524;-87
2022/03/31 11:28:19;;;;;;;;;5.00;5.00;;;;;11.60;50.57;99917.41;4969737;28;45458;-85